Time;durP1;ratioP1;P1;durP2;ratioP2;P2;SDS_P1;SDS_P2;PMS_P1;PMS_P2;Temp;Humidity;BMP_temperature;BMP_pressure;BME280_temperature;BME280_humidity;BME280_pressure;Samples;Min_cycle;Max_cycle;Signal;HPM_P1;HPM_P2
2021/09/08 00:00:10;;;;;;;108.05;60.92;;;19.20;98.90;;;;;;4852114;29;20061;-83
2021/09/08 00:02:39;;;;;;;94.93;58.25;;;19.20;99.00;;;;;;4846485;29;20053;-84
2021/09/08 00:05:10;;;;;;;102.38;55.15;;;19.10;99.00;;;;;;4856288;29;20475;-84
2021/09/08 00:07:39;;;;;;;;;;;19.10;99.00;;;;;;4840244;29;20054;-82
2021/09/08 00:10:10;;;;;;;107.47;58.83;;;19.10;99.70;;;;;;4848475;29;20300;-84
2021/09/08 00:12:41;;;;;;;101.38;57.60;;;19.00;99.10;;;;;;4844396;29;20061;-83
2021/09/08 00:15:11;;;;;;;115.95;60.25;;;19.00;99.30;;;;;;4852448;29;20042;-83
2021/09/08 00:17:42;;;;;;;105.00;57.42;;;18.90;99.70;;;;;;4853259;29;20049;-85
2021/09/08 00:20:12;;;;;;;106.10;62.17;;;18.90;99.60;;;;;;4852365;29;20050;-85
2021/09/08 00:22:43;;;;;;;110.70;62.25;;;18.80;99.90;;;;;;4852034;29;20057;-82
2021/09/08 00:25:15;;;;;;;106.07;61.38;;;18.80;99.90;;;;;;4849478;29;20058;-83
2021/09/08 00:27:45;;;;;;;111.63;62.20;;;18.80;99.90;;;;;;4835053;29;20086;-82
2021/09/08 00:30:14;;;;;;;112.15;62.65;;;18.70;99.90;;;;;;4841748;29;20046;-85
2021/09/08 00:32:46;;;;;;;120.97;62.65;;;18.70;99.90;;;;;;4848914;29;20532;-84
2021/09/08 00:35:15;;;;;;;119.97;67.80;;;18.70;99.90;;;;;;4829694;29;20061;-82
2021/09/08 00:37:43;;;;;;;103.50;58.33;;;18.70;99.90;;;;;;4846404;29;20395;-84
2021/09/08 00:40:13;;;;;;;115.72;64.20;;;18.60;99.90;;;;;;4846179;29;20494;-84
2021/09/08 00:42:43;;;;;;;108.53;62.70;;;18.60;99.90;;;;;;4833731;29;20058;-82
2021/09/08 00:45:13;;;;;;;119.47;65.47;;;18.60;99.90;;;;;;4849677;29;20101;-83
2021/09/08 00:47:42;;;;;;;116.00;69.20;;;18.60;99.90;;;;;;4849268;29;20049;-85
2021/09/08 00:50:10;;;;;;;131.60;68.97;;;18.50;99.90;;;;;;4851962;29;20299;-89
2021/09/08 00:52:41;;;;;;;125.80;67.38;;;18.50;99.90;;;;;;4848069;29;20054;-84
2021/09/08 00:55:11;;;;;;;119.72;66.55;;;18.50;99.90;;;;;;4845382;29;20065;-84
2021/09/08 00:57:41;;;;;;;122.30;69.55;;;18.50;99.90;;;;;;4852026;29;20054;-83
2021/09/08 01:00:11;;;;;;;136.07;72.93;;;18.50;99.90;;;;;;4861855;29;20042;-87
2021/09/08 01:02:40;;;;;;;129.55;71.53;;;18.40;99.90;;;;;;4851503;29;20057;-85
2021/09/08 01:05:10;;;;;;;125.05;69.40;;;18.40;99.90;;;;;;4851026;29;20075;-84
2021/09/08 01:07:39;;;;;;;140.10;70.72;;;18.40;99.90;;;;;;4853776;29;20042;-86
2021/09/08 01:10:09;;;;;;;146.75;74.10;;;18.40;99.90;;;;;;4854458;29;20076;-84
2021/09/08 01:12:42;;;;;;;125.32;69.10;;;18.40;99.90;;;;;;4851780;29;20050;-84
2021/09/08 01:15:13;;;;;;;121.53;68.80;;;18.30;99.90;;;;;;4869922;29;20038;-84
2021/09/08 01:17:43;;;;;;;127.43;71.07;;;18.40;99.90;;;;;;4860469;29;20056;-86
2021/09/08 01:20:14;;;;;;;120.47;71.40;;;18.30;99.90;;;;;;4855654;29;20046;-86
2021/09/08 01:22:53;;;;;;;129.13;72.53;;;18.30;99.90;;;;;;4859717;29;20052;-85
2021/09/08 01:25:24;;;;;;;131.98;68.97;;;18.30;99.90;;;;;;4858176;29;20057;-83
2021/09/08 01:27:55;;;;;;;131.23;71.80;;;18.30;99.90;;;;;;4857173;29;20038;-86
2021/09/08 01:30:26;;;;;;;137.77;73.90;;;18.30;99.90;;;;;;4856548;29;20049;-84
2021/09/08 01:32:55;;;;;;;137.75;71.72;;;18.30;99.90;;;;;;4855813;29;20069;-84
2021/09/08 01:35:23;;;;;;;127.57;73.97;;;18.30;99.90;;;;;;4853211;29;20057;-88
2021/09/08 01:37:53;;;;;;;140.77;74.35;;;18.30;99.90;;;;;;4851635;29;20053;-84
2021/09/08 01:40:21;;;;;;;132.48;75.38;;;18.20;99.90;;;;;;4835680;29;20061;-86
2021/09/08 01:42:49;;;;;;;138.55;75.75;;;18.20;99.90;;;;;;4851446;29;20050;-82
2021/09/08 01:45:17;;;;;;;132.70;70.22;;;18.20;99.90;;;;;;4838667;29;20576;-83
2021/09/08 01:47:46;;;;;;;131.27;72.32;;;18.20;99.90;;;;;;4837669;29;20054;-89
2021/09/08 01:50:15;;;;;;;140.15;72.80;;;18.20;99.90;;;;;;4857299;29;20054;-84
2021/09/08 01:52:43;;;;;;;136.18;71.80;;;18.10;99.90;;;;;;4848444;29;20065;-84
2021/09/08 01:55:11;;;;;;;138.15;73.28;;;18.10;99.90;;;;;;4848269;29;20050;-82
2021/09/08 01:57:39;;;;;;;130.80;71.85;;;18.10;99.90;;;;;;4818151;29;20057;-86
2021/09/08 02:00:09;;;;;;;136.07;73.00;;;18.10;99.90;;;;;;4844867;29;20060;-84
2021/09/08 02:02:41;;;;;;;139.65;72.43;;;18.10;99.90;;;;;;4839051;29;20060;-84
2021/09/08 02:05:10;;;;;;;119.03;69.50;;;18.10;99.90;;;;;;4848899;29;20050;-83
2021/09/08 02:07:38;;;;;;;123.18;64.78;;;18.00;99.90;;;;;;4842729;29;20054;-83
2021/09/08 02:10:10;;;;;;;134.15;70.75;;;18.00;99.90;;;;;;4845424;29;20371;-84
2021/09/08 02:12:42;;;;;;;132.85;67.95;;;18.00;99.90;;;;;;4844126;29;20075;-82
2021/09/08 02:15:12;;;;;;;121.43;66.03;;;18.00;99.90;;;;;;4845038;29;20046;-87
2021/09/08 02:17:42;;;;;;;126.45;67.07;;;18.00;99.90;;;;;;4846146;29;20069;-84
2021/09/08 02:20:11;;;;;;;125.22;74.15;;;18.00;99.90;;;;;;4846331;29;20042;-89
2021/09/08 02:22:39;;;;;;;125.45;68.97;;;17.90;99.90;;;;;;4824693;29;20054;-85
2021/09/08 02:25:07;;;;;;;134.15;71.43;;;17.90;99.90;;;;;;4844532;29;20054;-84
2021/09/08 02:27:38;;;;;;;117.70;67.85;;;17.90;99.90;;;;;;4839464;29;20049;-84
2021/09/08 02:30:06;;;;;;;126.47;68.00;;;17.80;99.90;;;;;;4852647;29;20046;-85
2021/09/08 02:32:34;;;;;;;128.77;68.95;;;17.80;99.90;;;;;;4844045;29;20076;-86
2021/09/08 02:35:04;;;;;;;119.47;67.55;;;17.80;99.90;;;;;;4841435;29;20055;-85
2021/09/08 02:37:33;;;;;;;119.25;65.65;;;17.80;99.90;;;;;;4840318;29;20510;-83
2021/09/08 02:40:02;;;;;;;121.53;65.50;;;17.70;99.90;;;;;;4846506;29;20042;-82
2021/09/08 02:42:31;;;;;;;122.15;67.85;;;17.70;99.90;;;;;;4841416;29;20054;-83
2021/09/08 02:44:58;;;;;;;119.68;65.82;;;17.70;99.90;;;;;;4837458;29;20045;-87
2021/09/08 02:47:26;;;;;;;127.32;68.22;;;17.60;99.90;;;;;;4843872;29;20478;-86
2021/09/08 02:49:54;;;;;;;124.03;66.18;;;17.60;99.90;;;;;;4861269;29;20069;-83
2021/09/08 02:52:22;;;;;;;126.50;65.00;;;17.60;99.90;;;;;;4858946;29;20065;-82
2021/09/08 02:54:49;;;;;;;127.72;66.07;;;17.60;99.90;;;;;;4853215;29;20049;-85
2021/09/08 02:57:17;;;;;;;116.95;64.45;;;17.30;99.90;;;;;;4847508;29;20050;-83
2021/09/08 02:59:45;;;;;;;130.88;66.72;;;17.50;99.90;;;;;;4853814;29;20061;-84
2021/09/08 03:02:14;;;;;;;118.03;66.40;;;17.40;99.90;;;;;;4852210;29;20045;-85
2021/09/08 03:04:42;;;;;;;118.72;61.33;;;17.40;99.90;;;;;;4853272;29;20058;-82
2021/09/08 03:07:11;;;;;;;110.53;62.55;;;17.40;99.90;;;;;;4853807;29;20042;-86
2021/09/08 03:09:39;;;;;;;113.13;60.53;;;17.40;99.90;;;;;;4853029;29;20060;-84
2021/09/08 03:12:07;;;;;;;117.50;59.78;;;17.40;99.90;;;;;;4846899;29;20046;-87
2021/09/08 03:14:37;;;;;;;105.65;59.97;;;17.40;99.90;;;;;;4853679;29;20056;-86
2021/09/08 03:17:06;;;;;;;115.05;62.45;;;17.40;99.90;;;;;;4848644;29;20053;-83
2021/09/08 03:19:35;;;;;;;107.18;57.83;;;17.30;99.90;;;;;;4849693;29;20061;-82
2021/09/08 03:22:03;;;;;;;109.20;59.30;;;17.30;99.90;;;;;;4843751;29;20057;-82
2021/09/08 03:24:30;;;;;;;96.88;55.45;;;17.30;99.90;;;;;;4854105;29;20050;-86
2021/09/08 03:26:58;;;;;;;106.20;60.63;;;17.30;99.90;;;;;;4850153;29;20382;-85
2021/09/08 03:29:26;;;;;;;120.70;61.13;;;17.30;99.90;;;;;;4837382;29;20073;-82
2021/09/08 03:31:54;;;;;;;98.95;58.30;;;17.20;99.90;;;;;;4853286;29;20057;-83
2021/09/08 03:34:22;;;;;;;103.60;56.30;;;17.20;99.90;;;;;;4822537;29;20061;-83
2021/09/08 03:36:50;;;;;;;113.53;62.67;;;17.20;99.90;;;;;;4852444;29;20050;-82
2021/09/08 03:39:18;;;;;;;111.20;65.72;;;17.20;99.90;;;;;;4845336;29;20058;-82
2021/09/08 03:41:45;;;;;;;122.15;66.95;;;17.20;99.90;;;;;;4854575;29;20087;-85
2021/09/08 03:44:13;;;;;;;107.28;58.83;;;17.20;99.90;;;;;;4853997;29;20072;-84
2021/09/08 03:46:41;;;;;;;108.80;60.10;;;17.20;99.90;;;;;;4856183;29;20053;-84
2021/09/08 03:49:08;;;;;;;109.28;60.85;;;17.20;99.90;;;;;;4860545;29;20049;-84
2021/09/08 03:51:36;;;;;;;114.70;62.95;;;17.20;99.90;;;;;;4862218;29;20046;-83
2021/09/08 03:54:04;;;;;;;104.72;60.90;;;17.10;99.90;;;;;;4859712;29;20053;-82
2021/09/08 03:56:31;;;;;;;118.30;63.97;;;17.10;99.90;;;;;;4855112;29;20038;-84
2021/09/08 03:59:00;;;;;;;124.05;63.42;;;17.10;99.90;;;;;;4848091;29;20046;-88
2021/09/08 04:01:27;;;;;;;108.38;61.47;;;17.10;99.90;;;;;;4823214;29;20052;-87
2021/09/08 04:03:55;;;;;;;103.22;58.28;;;17.00;99.90;;;;;;4849691;29;20062;-87
2021/09/08 04:06:25;;;;;;;105.20;55.70;;;17.00;99.90;;;;;;4855254;29;20053;-83
2021/09/08 04:08:53;;;;;;;102.15;56.97;;;17.00;99.90;;;;;;4845434;29;20057;-84
2021/09/08 04:11:21;;;;;;;107.57;59.35;;;17.00;99.90;;;;;;4853106;29;20069;-82
2021/09/08 04:13:48;;;;;;;104.18;55.40;;;16.90;99.90;;;;;;4849362;29;20058;-82
2021/09/08 04:16:19;;;;;;;99.32;55.33;;;16.90;99.90;;;;;;4843265;29;20054;-81
2021/09/08 04:18:46;;;;;;;106.50;56.78;;;16.90;99.90;;;;;;4839730;29;20061;-83
2021/09/08 04:21:15;;;;;;;105.50;58.78;;;16.90;99.90;;;;;;4847839;29;20045;-83
2021/09/08 04:23:44;;;;;;;107.63;58.17;;;16.80;99.90;;;;;;4849826;29;20050;-83
2021/09/08 04:26:11;;;;;;;104.82;59.95;;;16.80;99.90;;;;;;4847332;29;20046;-82
2021/09/08 04:28:39;;;;;;;108.57;57.10;;;16.80;99.90;;;;;;4847289;29;20062;-84
2021/09/08 04:31:07;;;;;;;109.63;60.13;;;16.80;99.90;;;;;;4848301;29;20053;-87
2021/09/08 04:33:35;;;;;;;105.82;62.05;;;16.80;99.90;;;;;;4847513;29;20345;-83
2021/09/08 04:36:03;;;;;;;114.75;63.35;;;16.70;99.90;;;;;;4844975;29;20037;-83
2021/09/08 04:38:31;;;;;;;107.93;60.20;;;16.80;99.90;;;;;;4836471;29;20054;-84
2021/09/08 04:40:59;;;;;;;115.60;61.10;;;16.70;99.90;;;;;;4848871;29;20056;-88
2021/09/08 04:43:28;;;;;;;121.50;62.88;;;16.70;99.90;;;;;;4838269;29;20066;-85
2021/09/08 04:45:56;;;;;;;119.78;62.40;;;16.70;99.90;;;;;;4841328;29;20053;-86
2021/09/08 04:48:25;;;;;;;108.38;64.30;;;16.70;99.90;;;;;;4846100;29;20085;-82
2021/09/08 04:50:53;;;;;;;116.00;61.22;;;16.60;99.90;;;;;;4846028;29;20402;-82
2021/09/08 04:53:21;;;;;;;133.82;67.50;;;16.70;99.90;;;;;;4849967;29;20054;-82
2021/09/08 04:55:50;;;;;;;130.55;65.35;;;16.60;99.90;;;;;;4866131;29;20050;-81
2021/09/08 04:58:18;;;;;;;118.45;63.83;;;16.60;99.90;;;;;;4845195;29;20498;-82
2021/09/08 05:00:46;;;;;;;111.97;57.15;;;16.60;99.90;;;;;;4846218;29;20061;-84
2021/09/08 05:03:15;;;;;;;115.88;59.30;;;16.50;99.90;;;;;;4846601;29;20548;-85
2021/09/08 05:05:45;;;;;;;121.15;59.30;;;16.50;99.90;;;;;;4851322;29;20082;-83
2021/09/08 05:08:13;;;;;;;120.13;60.97;;;16.50;99.90;;;;;;4849325;29;20054;-83
2021/09/08 05:10:41;;;;;;;105.93;57.75;;;16.50;99.90;;;;;;4851457;29;20065;-84
2021/09/08 05:13:09;;;;;;;119.38;62.47;;;16.50;99.90;;;;;;4828722;29;20061;-84
2021/09/08 05:15:38;;;;;;;126.38;63.70;;;16.50;99.90;;;;;;4849630;29;20046;-82
2021/09/08 05:18:05;;;;;;;117.07;62.50;;;16.50;99.90;;;;;;4842061;29;20057;-82
2021/09/08 05:20:34;;;;;;;111.72;60.22;;;16.50;99.90;;;;;;4842572;29;20553;-82
2021/09/08 05:23:04;;;;;;;128.18;66.60;;;16.50;99.90;;;;;;4847475;29;20061;-82
2021/09/08 05:25:32;;;;;;;130.55;66.05;;;16.50;99.90;;;;;;4847358;29;20071;-81
2021/09/08 05:27:59;;;;;;;138.63;70.40;;;16.50;99.90;;;;;;4844664;29;20061;-82
2021/09/08 05:30:27;;;;;;;135.55;67.38;;;16.50;99.90;;;;;;4845709;29;20054;-81
2021/09/08 05:32:55;;;;;;;135.55;69.10;;;16.50;99.90;;;;;;4846937;29;20066;-82
2021/09/08 05:35:24;;;;;;;117.60;63.13;;;16.50;99.90;;;;;;4847338;29;20053;-82
2021/09/08 05:37:53;;;;;;;125.53;63.65;;;17.20;99.90;;;;;;4841465;29;20054;-82
2021/09/08 05:40:22;;;;;;;124.53;65.20;;;16.50;99.90;;;;;;4839673;29;20062;-82
2021/09/08 05:42:50;;;;;;;109.63;63.05;;;16.50;99.90;;;;;;4844618;29;20896;-82
2021/09/08 05:45:18;;;;;;;122.07;65.95;;;16.40;99.90;;;;;;4844105;29;20046;-83
2021/09/08 05:47:46;;;;;;;124.50;65.28;;;16.40;99.90;;;;;;4837098;29;20050;-82
2021/09/08 05:50:13;;;;;;;127.63;69.00;;;16.40;99.90;;;;;;4840223;29;20049;-83
2021/09/08 05:52:43;;;;;;;115.15;62.67;;;16.40;99.90;;;;;;4829695;29;20299;-83
2021/09/08 05:55:11;;;;;;;117.43;63.20;;;16.40;99.90;;;;;;4845570;29;20046;-83
2021/09/08 05:57:41;;;;;;;121.32;63.58;;;16.40;99.90;;;;;;4837245;29;20054;-82
2021/09/08 06:00:10;;;;;;;119.28;65.45;;;16.40;99.90;;;;;;4838355;29;20061;-81
2021/09/08 06:02:39;;;;;;;118.93;64.70;;;16.40;99.90;;;;;;4830171;29;20077;-83
2021/09/08 06:05:10;;;;;;;124.05;62.95;;;16.40;99.90;;;;;;4826906;29;20054;-82
2021/09/08 06:07:38;;;;;;;118.80;64.78;;;16.40;99.90;;;;;;4841267;29;20049;-82
2021/09/08 06:10:07;;;;;;;118.00;60.17;;;16.50;99.90;;;;;;4842855;29;20050;-83
2021/09/08 06:12:35;;;;;;;110.32;61.67;;;16.50;99.90;;;;;;4846375;29;20069;-83
2021/09/08 06:15:06;;;;;;;112.00;61.03;;;16.50;99.90;;;;;;4842721;29;20064;-84
2021/09/08 06:17:36;;;;;;;112.72;61.00;;;16.60;99.90;;;;;;4843745;29;20060;-85
2021/09/08 06:20:07;;;;;;;131.95;62.05;;;16.60;99.90;;;;;;4854226;29;20049;-88
2021/09/08 06:22:36;;;;;;;125.65;64.20;;;16.60;99.90;;;;;;4838804;29;20068;-85
2021/09/08 06:25:04;;;;;;;110.85;60.45;;;16.60;99.90;;;;;;4835041;29;20058;-80
2021/09/08 06:27:37;;;;;;;105.22;61.00;;;16.70;99.90;;;;;;4855323;29;20053;-85
2021/09/08 06:30:08;;;;;;;127.78;66.47;;;16.70;99.90;;;;;;4849421;29;20061;-83
2021/09/08 06:32:36;;;;;;;132.65;66.47;;;16.80;99.90;;;;;;4846971;29;20045;-84
2021/09/08 06:35:09;;;;;;;120.35;64.57;;;16.80;99.90;;;;;;4828108;29;20053;-84
2021/09/08 06:37:37;;;;;;;;;;;16.90;99.90;;;;;;4819552;29;20057;-82
2021/09/08 06:40:07;;;;;;;115.15;62.83;;;16.90;99.90;;;;;;4845186;29;19932;-82
2021/09/08 06:42:36;;;;;;;116.18;61.38;;;16.50;99.90;;;;;;4848606;29;20053;-85
2021/09/08 06:45:23;;;;;;;122.32;65.22;;;17.00;99.90;;;;;;4855854;29;20046;-85
2021/09/08 06:47:51;;;;;;;125.20;64.70;;;17.10;99.90;;;;;;4845725;29;20421;-85
2021/09/08 06:50:19;;;;;;;102.55;61.60;;;17.10;99.90;;;;;;4838174;29;20050;-84
2021/09/08 06:52:47;;;;;;;113.20;59.85;;;17.20;99.90;;;;;;4849068;29;20049;-85
2021/09/08 06:55:16;;;;;;;118.78;62.00;;;17.30;99.90;;;;;;4826754;29;20065;-86
2021/09/08 06:57:45;;;;;;;116.50;59.40;;;17.40;99.90;;;;;;4832586;29;20453;-86
2021/09/08 07:00:13;;;;;;;109.55;60.97;;;17.50;99.90;;;;;;4839483;29;20058;-86
2021/09/08 07:02:43;;;;;;;104.65;56.47;;;17.50;99.90;;;;;;4844726;29;20399;-86
2021/09/08 07:05:15;;;;;;;106.13;60.40;;;17.60;99.90;;;;;;4842522;29;20066;-85
2021/09/08 07:07:44;;;;;;;96.88;54.75;;;17.60;99.90;;;;;;4843918;29;20058;-86
2021/09/08 07:10:12;;;;;;;102.55;53.10;;;17.70;99.90;;;;;;4826195;29;20398;-85
2021/09/08 07:12:41;;;;;;;98.15;54.70;;;17.70;99.90;;;;;;4818231;29;20065;-86
2021/09/08 07:15:10;;;;;;;106.25;55.03;;;17.80;99.90;;;;;;4852266;29;20054;-87
2021/09/08 07:17:39;;;;;;;95.10;53.35;;;17.80;99.90;;;;;;4838737;29;20057;-87
2021/09/08 07:20:09;;;;;;;100.40;54.93;;;17.90;99.90;;;;;;4841289;29;20552;-86
2021/09/08 07:22:37;;;;;;;89.45;48.95;;;18.00;99.90;;;;;;4845398;29;20828;-88
2021/09/08 07:25:07;;;;;;;83.47;47.00;;;18.10;99.90;;;;;;4836144;29;20053;-87
2021/09/08 07:27:36;;;;;;;86.25;46.55;;;18.20;99.90;;;;;;4850705;29;20058;-85
2021/09/08 07:30:05;;;;;;;79.13;45.22;;;18.20;99.90;;;;;;4838657;29;20065;-86
2021/09/08 07:32:33;;;;;;;73.32;43.10;;;18.30;99.90;;;;;;4844274;29;20054;-86
2021/09/08 07:35:01;;;;;;;72.93;45.08;;;18.40;99.90;;;;;;4844652;29;20053;-86
2021/09/08 07:37:29;;;;;;;80.00;44.97;;;18.50;99.90;;;;;;4830488;29;20050;-86
2021/09/08 07:39:57;;;;;;;71.35;42.55;;;18.60;99.90;;;;;;4862179;29;20070;-86
2021/09/08 07:42:26;;;;;;;74.13;41.63;;;18.60;99.90;;;;;;4848542;29;20051;-87
2021/09/08 07:44:55;;;;;;;79.50;40.70;;;18.70;99.90;;;;;;4841256;29;20049;-86
2021/09/08 07:47:26;;;;;;;67.78;38.17;;;18.80;99.90;;;;;;4847237;29;20809;-86
2021/09/08 07:49:54;;;;;;;67.20;35.53;;;18.90;99.90;;;;;;4831503;29;20522;-87
2021/09/08 07:52:21;;;;;;;58.17;34.97;;;19.00;99.90;;;;;;4844626;29;20057;-86
2021/09/08 07:54:52;;;;;;;61.65;34.22;;;19.10;99.90;;;;;;4839100;29;20054;-86
2021/09/08 07:57:21;;;;;;;53.35;33.17;;;19.20;99.90;;;;;;4851429;29;20054;-87
2021/09/08 07:59:49;;;;;;;56.13;31.55;;;19.60;99.90;;;;;;4846390;29;20056;-85
2021/09/08 08:02:16;;;;;;;59.58;35.05;;;19.40;99.90;;;;;;4847382;29;20050;-87
2021/09/08 08:04:44;;;;;;;55.47;35.17;;;19.50;99.90;;;;;;4847318;29;20066;-87
2021/09/08 08:07:14;;;;;;;53.58;29.58;;;19.50;99.90;;;;;;4844405;29;20052;-87
2021/09/08 08:09:43;;;;;;;49.28;29.75;;;19.60;99.90;;;;;;4820456;29;20054;-86
2021/09/08 08:12:11;;;;;;;50.08;29.13;;;19.70;99.90;;;;;;4814346;29;20046;-87
2021/09/08 08:14:41;;;;;;;49.42;28.27;;;19.80;99.90;;;;;;4830620;29;20514;-87
2021/09/08 08:17:11;;;;;;;48.65;25.33;;;19.90;99.90;;;;;;4844165;29;20054;-86
2021/09/08 08:19:47;;;;;;;;;;;20.00;99.90;;;;;;4838083;29;20149;-86
2021/09/08 08:22:16;;;;;;;43.25;24.30;;;20.10;99.90;;;;;;4834446;29;20049;-88
2021/09/08 08:24:43;;;;;;;47.22;26.02;;;20.20;99.90;;;;;;4831223;29;20083;-87
2021/09/08 08:27:11;;;;;;;44.50;24.98;;;20.20;99.90;;;;;;4842889;29;20053;-86
2021/09/08 08:29:42;;;;;;;41.05;21.63;;;20.40;99.90;;;;;;4842171;29;20046;-87
2021/09/08 08:32:10;;;;;;;42.30;23.88;;;20.50;99.90;;;;;;4848985;29;20053;-85
2021/09/08 08:34:46;;;;;;;47.17;23.65;;;20.60;99.90;;;;;;4830502;29;20061;-86
2021/09/08 08:37:23;;;;;;;38.40;24.35;;;20.70;99.90;;;;;;4847354;29;20639;-87
2021/09/08 08:39:56;;;;;;;44.40;22.23;;;20.80;99.90;;;;;;4847517;29;20049;-86
2021/09/08 08:42:27;;;;;;;36.85;21.70;;;20.90;99.90;;;;;;4833153;29;20046;-87
2021/09/08 08:44:55;;;;;;;47.90;24.40;;;21.00;99.90;;;;;;4821451;29;20049;-88
2021/09/08 08:47:27;;;;;;;42.63;24.13;;;21.10;99.90;;;;;;4845083;29;20530;-87
2021/09/08 08:49:56;;;;;;;41.83;22.13;;;21.20;99.90;;;;;;4832115;29;20068;-88
2021/09/08 08:52:23;;;;;;;42.95;21.27;;;21.30;99.90;;;;;;4850002;29;20042;-87
2021/09/08 08:54:52;;;;;;;35.90;20.45;;;21.40;99.90;;;;;;4832342;29;20061;-87
2021/09/08 08:57:19;;;;;;;41.42;22.50;;;21.50;99.90;;;;;;4846834;29;20058;-86
2021/09/08 08:59:49;;;;;;;43.08;21.40;;;21.60;99.90;;;;;;4849180;29;20058;-88
2021/09/08 09:02:25;;;;;;;40.42;20.63;;;21.70;99.90;;;;;;4841368;29;20503;-87
2021/09/08 09:04:57;;;;;;;30.98;17.10;;;21.90;99.90;;;;;;4848123;29;20046;-87
2021/09/08 09:07:41;;;;;;;38.17;18.35;;;21.90;99.90;;;;;;4848661;29;20062;-87
2021/09/08 09:10:14;;;;;;;33.30;18.83;;;22.10;99.90;;;;;;4828576;29;20054;-87
2021/09/08 09:12:45;;;;;;;38.42;17.77;;;22.20;99.90;;;;;;4848894;29;20053;-87
2021/09/08 09:15:18;;;;;;;34.78;18.52;;;22.30;99.90;;;;;;4853193;29;20387;-88
2021/09/08 09:17:52;;;;;;;30.58;15.57;;;22.40;99.90;;;;;;4836939;29;20050;-87
2021/09/08 09:20:22;;;;;;;28.60;17.35;;;22.50;99.90;;;;;;4849673;29;20061;-86
2021/09/08 09:22:56;;;;;;;31.08;15.57;;;22.60;99.90;;;;;;4830868;29;20062;-87
2021/09/08 09:25:38;;;;;;;25.38;13.95;;;22.70;99.90;;;;;;4832807;29;20050;-86
2021/09/08 09:28:08;;;;;;;26.42;14.18;;;22.80;99.90;;;;;;4840295;29;20496;-87
2021/09/08 09:30:39;;;;;;;28.65;14.43;;;22.90;99.90;;;;;;4829937;29;20038;-87
2021/09/08 09:33:28;;;;;;;30.20;13.35;;;23.10;99.90;;;;;;4826036;29;20788;-88
2021/09/08 09:36:14;;;;;;;38.00;14.65;;;23.20;99.70;;;;;;4834266;29;20570;-86
2021/09/08 09:38:47;;;;;;;27.52;13.93;;;23.30;98.70;;;;;;4844469;29;20065;-88
2021/09/08 09:41:27;;;;;;;32.10;13.20;;;23.40;99.00;;;;;;4848940;29;20064;-86
2021/09/08 09:43:54;;;;;;;18.58;10.77;;;23.40;98.80;;;;;;4841851;29;20049;-86
2021/09/08 09:46:26;;;;;;;20.33;10.05;;;23.60;98.90;;;;;;4830708;29;20065;-87
2021/09/08 09:48:55;;;;;;;24.52;11.13;;;23.70;98.20;;;;;;4830107;29;20060;-87
2021/09/08 09:51:25;;;;;;;23.67;10.32;;;23.80;97.90;;;;;;4834347;29;20054;-86
2021/09/08 09:53:54;;;;;;;23.75;10.20;;;23.90;97.40;;;;;;4858986;29;20080;-86
2021/09/08 09:56:24;;;;;;;26.63;11.10;;;24.00;97.40;;;;;;4836943;29;20760;-86
2021/09/08 09:58:52;;;;;;;22.13;10.35;;;24.10;97.20;;;;;;4838013;29;20101;-86
2021/09/08 10:01:20;;;;;;;22.83;10.93;;;24.20;96.90;;;;;;4829718;29;20054;-87
2021/09/08 10:03:49;;;;;;;21.27;11.27;;;24.30;96.80;;;;;;4847666;29;20046;-87
2021/09/08 10:06:20;;;;;;;22.40;10.35;;;24.30;96.40;;;;;;4848852;29;20072;-86
2021/09/08 10:08:53;;;;;;;22.08;10.32;;;24.40;96.30;;;;;;4831867;29;20498;-87
2021/09/08 10:11:33;;;;;;;20.48;10.82;;;24.50;96.20;;;;;;4843768;29;20062;-87
2021/09/08 10:14:13;;;;;;;23.63;10.32;;;24.60;96.00;;;;;;4838743;29;20061;-86
2021/09/08 10:16:48;;;;;;;18.95;10.07;;;24.70;95.80;;;;;;4844892;29;20244;-87
2021/09/08 10:19:26;;;;;;;18.23;8.52;;;24.80;95.70;;;;;;4830802;29;20062;-86
2021/09/08 10:22:06;;;;;;;20.55;9.05;;;24.90;95.10;;;;;;4840826;29;20058;-87
2021/09/08 10:24:35;;;;;;;13.88;8.13;;;25.00;94.70;;;;;;4830563;29;20081;-86
2021/09/08 10:27:20;;;;;;;19.13;9.82;;;25.10;95.00;;;;;;4832163;29;20049;-86
2021/09/08 10:29:54;;;;;;;26.38;9.15;;;25.20;94.30;;;;;;4838325;29;20055;-86
2021/09/08 10:32:23;;;;;;;18.75;11.20;;;25.30;94.60;;;;;;4840656;29;20306;-86
2021/09/08 10:34:51;;;;;;;19.83;8.73;;;25.40;94.30;;;;;;4845348;29;20061;-87
2021/09/08 10:37:20;;;;;;;19.05;9.48;;;25.40;94.20;;;;;;4846108;29;20062;-86
2021/09/08 10:39:51;;;;;;;20.77;11.00;;;25.50;94.10;;;;;;4840865;29;20060;-86
2021/09/08 10:42:48;;;;;;;28.35;12.52;;;25.60;94.30;;;;;;4839047;29;20061;-87
2021/09/08 10:45:19;;;;;;;24.27;10.60;;;25.70;94.20;;;;;;4834887;29;20061;-86
2021/09/08 10:47:49;;;;;;;23.55;11.15;;;25.80;94.50;;;;;;4850748;29;20057;-86
2021/09/08 10:50:44;;;;;;;28.63;12.55;;;25.90;94.60;;;;;;4843455;29;20513;-86
2021/09/08 10:53:24;;;;;;;23.00;11.60;;;26.00;94.50;;;;;;4845189;29;20618;-87
2021/09/08 10:55:54;;;;;;;25.25;11.77;;;26.00;94.50;;;;;;4842273;29;20058;-87
2021/09/08 10:58:44;;;;;;;24.48;12.05;;;26.10;94.40;;;;;;4845681;29;20407;-86
2021/09/08 11:01:15;;;;;;;21.80;9.68;;;26.10;94.20;;;;;;4839052;29;20065;-87
2021/09/08 11:03:45;;;;;;;22.27;10.38;;;26.10;94.00;;;;;;4824302;29;20050;-87
2021/09/08 11:06:15;;;;;;;26.35;11.75;;;26.20;94.30;;;;;;4828431;29;20418;-88
2021/09/08 11:08:44;;;;;;;23.25;11.10;;;26.30;94.50;;;;;;4843501;29;20046;-87
2021/09/08 11:11:19;;;;;;;;;;;26.40;94.40;;;;;;4806270;29;20061;-86
2021/09/08 11:13:55;;;;;;;25.08;12.13;;;26.60;93.70;;;;;;4848879;29;19935;-86
2021/09/08 11:16:29;;;;;;;25.10;11.95;;;26.70;93.70;;;;;;4846976;29;20430;-86
2021/09/08 11:18:59;;;;;;;24.67;12.02;;;26.80;93.40;;;;;;4847365;29;20042;-87
2021/09/08 11:21:33;;;;;;;21.77;11.77;;;26.80;93.10;;;;;;4847494;29;20049;-87
2021/09/08 11:24:04;;;;;;;;;;;26.90;93.00;;;;;;4824760;29;20070;-86
2021/09/08 11:26:33;;;;;;;26.83;12.90;;;26.90;92.90;;;;;;4848009;29;19935;-87
2021/09/08 11:29:11;;;;;;;29.60;11.80;;;26.90;92.90;;;;;;4843738;29;20066;-87
2021/09/08 11:31:45;;;;;;;23.33;12.18;;;27.00;92.40;;;;;;4862823;29;20063;-87
2021/09/08 11:34:24;;;;;;;35.60;12.10;;;27.00;92.70;;;;;;4831421;29;20542;-87
2021/09/08 11:36:57;;;;;;;34.03;11.98;;;27.00;92.50;;;;;;4864246;29;20076;-87
2021/09/08 11:39:29;;;;;;;19.95;10.98;;;27.10;92.40;;;;;;4852495;29;20048;-89
2021/09/08 11:42:00;;;;;;;27.67;12.18;;;27.10;92.20;;;;;;4837309;29;20050;-87
2021/09/08 11:44:34;;;;;;;22.73;11.77;;;27.20;92.20;;;;;;4828523;29;20097;-87
2021/09/08 11:47:16;;;;;;;26.10;11.55;;;27.30;91.90;;;;;;4855385;29;20050;-87
2021/09/08 11:50:00;;;;;;;29.38;12.77;;;27.30;91.30;;;;;;4851535;29;20050;-88
2021/09/08 11:52:28;;;;;;;26.95;9.80;;;27.30;91.70;;;;;;4835098;29;20046;-88
2021/09/08 11:54:58;;;;;;;37.53;11.38;;;27.40;91.80;;;;;;4836197;29;20061;-87
2021/09/08 11:57:26;;;;;;;27.95;12.10;;;27.40;91.50;;;;;;4848993;29;20050;-87
2021/09/08 11:59:55;;;;;;;21.20;10.73;;;27.50;91.50;;;;;;4835995;29;20038;-88
2021/09/08 12:02:24;;;;;;;34.70;11.18;;;27.50;91.40;;;;;;4854790;29;20062;-86
2021/09/08 12:04:54;;;;;;;29.80;12.20;;;27.60;91.20;;;;;;4835685;29;20053;-88
2021/09/08 12:07:30;;;;;;;28.52;11.90;;;27.70;91.20;;;;;;4822726;29;20066;-88
2021/09/08 12:09:59;;;;;;;21.85;10.85;;;27.70;90.90;;;;;;4836395;29;20050;-88
2021/09/08 12:12:27;;;;;;;28.23;10.77;;;27.80;90.80;;;;;;4848824;29;20046;-87
2021/09/08 12:14:56;;;;;;;28.20;10.38;;;27.80;90.80;;;;;;4855889;29;20057;-87
2021/09/08 12:17:27;;;;;;;27.60;11.63;;;27.90;90.70;;;;;;4843996;29;20509;-87
2021/09/08 12:20:22;;;;;;;22.20;9.48;;;27.90;90.30;;;;;;4846434;29;20046;-87
2021/09/08 12:22:51;;;;;;;22.48;10.65;;;28.00;90.10;;;;;;4838568;29;20062;-87
2021/09/08 12:25:21;;;;;;;19.58;9.65;;;28.00;90.10;;;;;;4844927;29;20058;-87
2021/09/08 12:27:52;;;;;;;26.08;9.60;;;28.00;90.00;;;;;;4841216;29;20053;-87
2021/09/08 12:30:19;;;;;;;21.40;10.73;;;28.00;89.80;;;;;;4844745;29;20046;-86
2021/09/08 12:33:09;;;;;;;25.67;10.40;;;28.00;89.30;;;;;;4828438;29;20050;-86
2021/09/08 12:35:44;;;;;;;28.25;10.85;;;28.10;89.40;;;;;;4847189;29;20050;-86
2021/09/08 12:38:59;;;;;;;23.77;10.02;;;28.10;89.30;;;;;;4850520;29;20061;-87